Logo AVAMET
Benvolgut visitant, si us plau, ingressa Recuperar contrasenya

Inforatge Bellreguard

Dades diàries. Acumulats / Últims 30 dies disponibles

Data Temperatura (°C) Humitat rel. (%) Pressió rel. (hPa) Vent (km/h) Precipitació
Mínima Mitjana Màxima Amplitud
tèrmica
Mínima Mitjana Màxima Mínima Mitjana Màxima Predom. Mitjana Ràfega
màxima
Total
(mm)
Índex-n
Mínima Mitjana Màxima Mínima Mitjana Màxima n
0 a 1
P0 max
mm 5'
Dades mensuals acumulades fins l'últim dia disponible
08/2019 21,3 23,5 27,1 28,1 28,2 33,1 40,0 18,7 22 70 94 1.007 1.014 1.019   6,1 37,0 11,0
Dades anuals acumulades fins l'últim dia disponible
2019 1,4 14,1 27,1 18,7 11,4 23,5 40,0 38,6 15 65 98 993 1.017 1.036   6,8 72,2 279,6
Últims 30 dies disponibles
19-08-2019 23,7     27,2     30,4 6,7 67 80 89 1.011 1.014 1.015 SE 5,1 22,6 0,0
18-08-2019 23,5     29,3     40,0 16,5 22 69 89 1.008 1.011 1.014 S 5,1 25,9 0,0
17-08-2019 22,6     28,2     36,9 14,3 38 72 87 1.010 1.014 1.016 SSE 5,2 24,1 0,0
16-08-2019 23,0     27,6     34,2 11,2 42 71 84 1.013 1.016 1.019 S 7,6 37,0 0,0
15-08-2019 23,1     28,2     34,7 11,6 38 68 85 1.014 1.017 1.018 S 6,5 29,6 0,0
14-08-2019 21,4     30,5     34,6 13,2 40 55 78 1.014 1.016 1.019 SE 8,8 31,5 0,0
13-08-2019 21,3     24,9     28,2 6,9 57 74 94 1.016 1.018 1.019 SE 6,7 31,5 11,0 3,80
12-08-2019 24,3     26,5     28,3 4,0 58 76 89 1.011 1.014 1.018 SE 6,3 24,1 0,0
11-08-2019 26,4     29,1     34,4 8,0 54 77 89 1.010 1.013 1.015 ESE 6,6 29,6 0,0
10-08-2019 27,1     30,1     34,1 7,0 36 59 88 1.012 1.014 1.017 SE 6,2 27,8 0,0
09-08-2019 22,1     31,8     38,7 16,6 24 50 84 1.009 1.011 1.012 SSE 6,7 27,8 0,0
08-08-2019 24,6     31,0     37,7 13,1 26 57 90 1.009 1.011 1.013 S 6,6 31,5 0,0
07-08-2019 23,5     28,1     34,4 10,9 48 78 91 1.008 1.010 1.013 SE 5,1 24,1 0,0
06-08-2019 25,9     28,8     34,4 8,5 52 77 88 1.007 1.011 1.013 E 5,0 22,6 0,0
05-08-2019 24,3     27,0     29,5 5,2 68 79 87 1.011 1.013 1.015 SSE 5,3 22,6 0,0
04-08-2019 22,6     27,6     32,2 9,6 57 70 84 1.011 1.013 1.014 SSE 6,3 27,8 0,0
03-08-2019 22,4     26,2     29,7 7,3 52 73 87 1.011 1.014 1.016 SSE 6,7 27,8 0,0
02-08-2019 21,3     25,5     29,0 7,7 60 74 85 1.013 1.014 1.016 SE 5,3 20,9 0,0
01-08-2019 23,0     25,6     28,3 5,3 64 77 85 1.011 1.013 1.015 SE 4,6 22,6 0,0
31-07-2019 24,7     25,9     28,7 4,0 65 80 87 1.014 1.016 1.017 ENE 6,3 32,2 0,0
30-07-2019 23,5     26,7     31,6 8,1 38 75 83 1.009 1.013 1.015 SE 7,9 33,9 0,0
29-07-2019 22,2     28,9     36,2 14,0 32 58 81 1.007 1.009 1.011 SSE 7,2 29,6 0,0
28-07-2019 23,4     27,2     31,4 8,0 40 55 72 1.007 1.009 1.011 SE 7,4 37,0 0,0
27-07-2019 24,3     29,8     35,8 11,5 19 42 82 1.002 1.005 1.009 OSO 10,6 40,7 0,0
26-07-2019 23,2     27,4     31,6 8,4 48 68 83 1.007 1.010 1.012 SSE 5,9 24,1 0,0
25-07-2019 22,8     28,5     34,1 11,3 35 57 76 1.010 1.013 1.015 SSE 8,3 37,0 0,0
24-07-2019 22,1     27,8     32,0 9,9 37 60 79 1.013 1.015 1.017 SSE 6,4 31,5 0,0
23-07-2019 21,3     26,6     31,1 9,8 48 70 85 1.015 1.018 1.020 SSE 6,1 22,6 0,0
22-07-2019 22,8     26,6     29,8 7,0 57 76 88 1.019 1.021 1.022 SSE 5,1 19,3 0,0
21-07-2019 23,2     26,7     30,4 7,2 62 79 90 1.017 1.019 1.021 SSE 5,1 24,1 0,0
Últims 13 mesos disponibles
07/2019 20,8 23,0 26,3 27,2 28,0 31,6 37,6 16,8 42 68 80 1.005 1.013 1.021 SSE 6,7 58,0 0,4
06/2019 13,2 18,0 22,6 23,1 20,7 27,6 34,1 20,9 37 66 82 1.009 1.015 1.022 SSE 6,0 46,7 0,0
05/2019 9,6 14,9 22,2 19,5 18,5 24,3 31,6 22,0 35 67 81 1.006 1.015 1.024 SSE 6,4 51,9 5,6
04/2019 8,8 12,2 17,0 16,0 14,6 20,1 29,7 20,9 38 68 94 1.000 1.013 1.025 SSE 7,8 51,9 204,8
03/2019 6,2 9,5 16,0 14,8 14,1 19,9 28,6 22,4 30 61 93 1.011 1.023 1.030 SSE 5,8 61,1 55,4
02/2019 4,5 7,7 11,7 12,4 13,3 17,5 22,7 18,2 33 64 84 995 1.025 1.034 S 6,7 72,2 0,0
01/2019 1,4 7,4 14,4 11,6 11,4 16,9 21,2 19,8 40 59 80 1.002 1.019 1.031 SSO 8,1 61,1 2,4
12/2018 4,8 9,5 14,3 13,6 14,8 19,2 25,9 21,1 53 69 90 1.010 1.025 1.031 SSO 6,3 51,9 19,6
11/2018 7,1 12,4 15,7 15,3 16,3 19,0 23,3 16,2 48 73 96 1.001 1.016 1.024 OSO 6,3 58,0 204,4
Tots els anys disponibles
Temperatura (°C)
Humitat relativa (%)
Velocitat del vent i ràfega màxima (km/h)
Direcció del vent (°)
Pressió (hPa)
Precipitació (mm)
Nota sobre les dades: s'avisa a l'usuari de la provisionalitat i no oficialitat d'aquestes dades
Logo AVAMET blanc
Web allotjada a Sollutia
Llicència de Creative CommonsLa web d'AVAMET i els seus continguts estan subjectes a una llicència de
Reconeixement - No Comercial - Compartir igual
Properes estacions: Altea - Club Nàutic d'Altea (Soci), Ares del Maestrat (Ajuntament Soci),      - - - - -      Últimes estacions: Catadau - Urb. Lloma Molina (Inforatge), Ontinyent - El Pilar (Soci) - - -